createdAt,value
2018-07-11T00:00:59.230Z,15.93
2018-07-11T00:01:59.288Z,16.01
2018-07-11T00:02:59.348Z,15.93
2018-07-11T00:03:59.409Z,15.95
2018-07-11T00:04:59.468Z,15.91
2018-07-11T00:05:59.528Z,15.91
2018-07-11T00:06:59.587Z,15.92
2018-07-11T00:07:59.647Z,15.92
2018-07-11T00:08:59.708Z,15.96
2018-07-11T00:09:59.766Z,15.85
2018-07-11T00:10:59.826Z,15.86
2018-07-11T00:11:59.887Z,15.91
2018-07-11T00:12:59.945Z,15.84
2018-07-11T00:14:00.007Z,15.86
2018-07-11T00:15:00.125Z,15.78
2018-07-11T00:16:00.125Z,15.85
2018-07-11T00:17:00.186Z,15.92
2018-07-11T00:18:00.243Z,15.81
2018-07-11T00:19:00.304Z,15.81
2018-07-11T00:20:00.363Z,15.78
2018-07-11T00:21:00.423Z,15.78
2018-07-11T00:22:00.483Z,15.78
2018-07-11T00:23:00.546Z,15.66
2018-07-11T00:24:00.602Z,15.67
2018-07-11T00:25:00.662Z,15.67
2018-07-11T00:26:00.720Z,15.71
2018-07-11T00:27:00.781Z,15.68
2018-07-11T00:28:00.840Z,15.53
2018-07-11T00:29:00.899Z,15.52
2018-07-11T00:30:00.961Z,15.52
2018-07-11T00:31:01.022Z,15.58
2018-07-11T00:32:01.082Z,15.52
2018-07-11T00:33:01.139Z,15.44
2018-07-11T00:34:01.197Z,15.46
2018-07-11T00:35:01.257Z,15.43
2018-07-11T00:36:01.319Z,15.51
2018-07-11T00:37:01.391Z,15.38
2018-07-11T00:38:01.436Z,15.44
2018-07-11T00:39:01.495Z,15.41
2018-07-11T00:40:01.555Z,15.37
2018-07-11T00:41:01.616Z,15.43
2018-07-11T00:42:01.674Z,15.44
2018-07-11T00:43:02.309Z,15.43
2018-07-11T00:44:01.793Z,15.48
2018-07-11T00:45:01.854Z,15.49
2018-07-11T00:46:02.403Z,15.44
2018-07-11T00:47:02.643Z,15.41
2018-07-11T00:48:02.048Z,15.43
2018-07-11T00:49:02.658Z,15.40
2018-07-11T00:50:02.150Z,15.40
2018-07-11T00:51:02.214Z,15.44
2018-07-11T00:52:02.270Z,15.52
2018-07-11T00:53:02.330Z,15.53
2018-07-11T00:54:02.389Z,15.46
2018-07-11T00:55:02.448Z,15.51
2018-07-11T00:56:02.507Z,15.52
2018-07-11T00:57:02.568Z,15.52
2018-07-11T00:58:02.625Z,15.53
2018-07-11T00:59:02.685Z,15.64
2018-07-11T01:00:02.746Z,15.64
2018-07-11T01:01:02.806Z,15.64
2018-07-11T01:02:02.864Z,15.64
2018-07-11T01:03:02.924Z,15.56
2018-07-11T01:04:02.986Z,15.70
2018-07-11T01:05:03.043Z,15.67
2018-07-11T01:06:03.102Z,15.62
2018-07-11T01:07:03.163Z,15.62
2018-07-11T01:08:03.471Z,15.53
2018-07-11T01:09:03.281Z,15.52
2018-07-11T01:10:03.340Z,15.51
2018-07-11T01:11:03.422Z,15.64
2018-07-11T01:12:03.462Z,15.58
2018-07-11T01:13:03.519Z,15.68
2018-07-11T01:14:03.578Z,15.60
2018-07-11T01:15:03.639Z,15.59
2018-07-11T01:16:03.697Z,15.60
2018-07-11T01:17:03.758Z,15.55
2018-07-11T01:18:03.818Z,15.52
2018-07-11T01:19:03.876Z,15.52
2018-07-11T01:20:03.936Z,15.51
2018-07-11T01:21:04.017Z,15.56
2018-07-11T01:22:04.056Z,15.53
2018-07-11T01:23:04.114Z,15.44
2018-07-11T01:24:04.192Z,15.31
2018-07-11T01:25:04.234Z,15.38
2018-07-11T01:26:04.301Z,15.22
2018-07-11T01:27:04.378Z,15.37
2018-07-11T01:28:04.413Z,15.46
2018-07-11T01:29:05.037Z,15.33
2018-07-11T01:30:04.539Z,15.38
2018-07-11T01:31:04.611Z,15.41
2018-07-11T01:32:04.983Z,15.46
2018-07-11T01:33:04.753Z,15.37
2018-07-11T01:34:04.802Z,15.49
2018-07-11T01:35:04.831Z,15.34
2018-07-11T01:36:04.888Z,15.38
2018-07-11T01:37:04.947Z,15.30
2018-07-11T01:38:05.006Z,15.19
2018-07-11T01:39:05.072Z,15.31
2018-07-11T01:40:05.157Z,15.20
2018-07-11T01:41:05.212Z,15.18
2018-07-11T01:42:05.582Z,15.13
2018-07-11T01:43:05.615Z,15.09
2018-07-11T01:44:05.425Z,15.07
2018-07-11T01:45:05.464Z,15.12
2018-07-11T01:46:05.480Z,15.11
2018-07-11T01:47:05.541Z,15.11
2018-07-11T01:48:05.599Z,15.13
2018-07-11T01:49:05.658Z,15.09
2018-07-11T01:50:05.718Z,15.09
2018-07-11T01:51:05.777Z,15.07
2018-07-11T01:52:05.837Z,15.11
2018-07-11T01:53:05.895Z,14.94
2018-07-11T01:54:05.955Z,14.91
2018-07-11T01:55:06.014Z,14.83
2018-07-11T01:56:06.072Z,14.82
2018-07-11T01:57:06.132Z,14.75
2018-07-11T01:58:06.190Z,14.79
2018-07-11T01:59:06.250Z,14.79
2018-07-11T02:00:06.309Z,14.74
2018-07-11T02:01:06.369Z,14.71
2018-07-11T02:02:06.426Z,14.80
2018-07-11T02:03:06.485Z,14.75
2018-07-11T02:04:06.547Z,14.71
2018-07-11T02:05:06.606Z,14.67
2018-07-11T02:06:06.663Z,14.64
2018-07-11T02:07:06.736Z,14.46
2018-07-11T02:08:06.781Z,14.49
2018-07-11T02:09:06.841Z,14.59
2018-07-11T02:10:06.899Z,14.56
2018-07-11T02:11:06.958Z,14.59
2018-07-11T02:12:07.017Z,14.56
2018-07-11T02:13:07.080Z,14.39
2018-07-11T02:14:07.136Z,14.26
2018-07-11T02:15:07.195Z,14.30
2018-07-11T02:16:07.254Z,14.39
2018-07-11T02:17:07.313Z,14.24
2018-07-11T02:18:07.371Z,14.38
2018-07-11T02:19:07.431Z,14.29
2018-07-11T02:20:07.489Z,14.29
2018-07-11T02:21:07.549Z,14.17
2018-07-11T02:22:07.607Z,14.05
2018-07-11T02:23:07.665Z,13.99
2018-07-11T02:24:07.725Z,13.86
2018-07-11T02:25:07.786Z,13.98
2018-07-11T02:26:07.842Z,13.88
2018-07-11T02:27:07.901Z,13.93
2018-07-11T02:28:07.961Z,13.90
2018-07-11T02:29:08.020Z,13.96
2018-07-11T02:30:08.078Z,13.93
2018-07-11T02:31:08.137Z,13.86
2018-07-11T02:32:08.197Z,13.91
2018-07-11T02:33:08.254Z,13.87
2018-07-11T02:34:08.312Z,13.86
2018-07-11T02:35:08.371Z,13.90
2018-07-11T02:36:08.431Z,13.86
2018-07-11T02:37:08.488Z,13.93
2018-07-11T02:38:08.547Z,13.91
2018-07-11T02:39:08.608Z,13.94
2018-07-11T02:40:08.673Z,13.88
2018-07-11T02:41:08.723Z,13.88
2018-07-11T02:42:08.780Z,13.72
2018-07-11T02:43:08.840Z,13.68
2018-07-11T02:44:08.900Z,13.72
2018-07-11T02:45:08.960Z,13.75
2018-07-11T02:46:09.016Z,13.72
2018-07-11T02:47:09.074Z,13.63
2018-07-11T02:48:09.151Z,13.72
2018-07-11T02:49:09.192Z,13.79
2018-07-11T02:50:09.253Z,13.69
2018-07-11T02:51:09.319Z,13.68
2018-07-11T02:52:09.378Z,13.81
2018-07-11T02:53:09.481Z,13.63
2018-07-11T02:54:09.484Z,13.66
2018-07-11T02:55:09.541Z,13.63
2018-07-11T02:56:09.602Z,13.65
2018-07-11T02:57:09.659Z,13.71
2018-07-11T02:58:09.722Z,13.69
2018-07-11T02:59:09.777Z,13.71
2018-07-11T03:00:09.836Z,13.68
2018-07-11T03:01:09.895Z,13.61
2018-07-11T03:02:09.951Z,13.47
2018-07-11T03:03:10.012Z,13.54
2018-07-11T03:04:10.069Z,13.38
2018-07-11T03:05:10.129Z,13.32
2018-07-11T03:06:10.185Z,13.24
2018-07-11T03:07:10.245Z,13.25
2018-07-11T03:08:10.303Z,13.27
2018-07-11T03:09:10.361Z,13.24
2018-07-11T03:10:10.419Z,13.24
2018-07-11T03:11:10.477Z,13.25
2018-07-11T03:12:10.787Z,13.25
2018-07-11T03:13:10.596Z,13.35
2018-07-11T03:14:10.654Z,13.27
2018-07-11T03:15:10.714Z,13.29
2018-07-11T03:16:10.772Z,13.25
2018-07-11T03:17:10.829Z,13.38
2018-07-11T03:18:10.905Z,13.53
2018-07-11T03:19:10.946Z,13.66
2018-07-11T03:20:11.004Z,13.79
2018-07-11T03:21:11.063Z,13.75
2018-07-11T03:22:11.121Z,13.80
2018-07-11T03:23:11.179Z,13.79
2018-07-11T03:24:11.238Z,13.80
2018-07-11T03:25:11.298Z,13.66
2018-07-11T03:26:11.354Z,13.63
2018-07-11T03:27:11.422Z,13.79
2018-07-11T03:28:11.471Z,13.73
2018-07-11T03:29:11.530Z,13.69
2018-07-11T03:30:11.588Z,13.66
2018-07-11T03:31:11.648Z,13.63
2018-07-11T03:32:11.705Z,13.65
2018-07-11T03:33:11.919Z,13.66
2018-07-11T03:34:11.824Z,13.62
2018-07-11T03:35:11.884Z,13.73
2018-07-11T03:36:11.941Z,13.63
2018-07-11T03:37:12.003Z,13.55
2018-07-11T03:38:12.057Z,13.44
2018-07-11T03:39:12.115Z,13.44
2018-07-11T03:40:12.174Z,13.44
2018-07-11T03:41:12.234Z,13.43
2018-07-11T03:42:12.291Z,13.41
2018-07-11T03:43:12.349Z,13.47
2018-07-11T03:44:12.408Z,13.43
2018-07-11T03:45:12.468Z,13.43
2018-07-11T03:46:12.544Z,13.44
2018-07-11T03:47:12.584Z,13.35
2018-07-11T03:48:12.643Z,13.43
2018-07-11T03:49:12.700Z,13.48
2018-07-11T03:50:12.760Z,13.41
2018-07-11T03:51:12.833Z,13.48
2018-07-11T03:52:12.879Z,13.50
2018-07-11T03:53:12.947Z,13.51
2018-07-11T03:54:13.019Z,13.46
2018-07-11T03:55:13.051Z,13.50
2018-07-11T03:56:13.121Z,13.38
2018-07-11T03:57:13.174Z,13.35
2018-07-11T03:58:13.244Z,13.39
2018-07-11T03:59:13.286Z,13.22
2018-07-11T04:00:13.344Z,13.27
2018-07-11T04:01:13.434Z,13.39
2018-07-11T04:02:13.462Z,13.43
2018-07-11T04:03:13.519Z,13.46
2018-07-11T04:04:13.578Z,13.38
2018-07-11T04:05:13.637Z,13.44
2018-07-11T04:06:13.695Z,13.43
2018-07-11T04:07:13.754Z,13.44
2018-07-11T04:08:13.812Z,13.50
2018-07-11T04:09:13.872Z,13.53
2018-07-11T04:10:13.928Z,13.63
2018-07-11T04:11:13.988Z,13.65
2018-07-11T04:12:14.046Z,13.63
2018-07-11T04:13:14.105Z,13.63
2018-07-11T04:14:14.164Z,13.63
2018-07-11T04:15:14.221Z,13.69
2018-07-11T04:16:14.280Z,13.69
2018-07-11T04:17:14.339Z,13.66
2018-07-11T04:18:14.398Z,13.69
2018-07-11T04:19:14.532Z,13.71
2018-07-11T04:20:14.516Z,13.62
2018-07-11T04:21:14.574Z,13.61
2018-07-11T04:22:14.631Z,13.59
2018-07-11T04:23:14.690Z,13.62
2018-07-11T04:24:14.761Z,13.66
2018-07-11T04:25:14.807Z,13.61
2018-07-11T04:26:14.864Z,13.68
2018-07-11T04:27:14.923Z,13.59
2018-07-11T04:28:14.981Z,13.62
2018-07-11T04:29:15.042Z,13.57
2018-07-11T04:30:15.099Z,13.69
2018-07-11T04:31:15.158Z,13.61
2018-07-11T04:32:15.218Z,13.63
2018-07-11T04:33:15.274Z,13.71
2018-07-11T04:34:15.333Z,13.80
2018-07-11T04:35:15.391Z,13.79
2018-07-11T04:36:15.453Z,13.65
2018-07-11T04:37:15.509Z,13.75
2018-07-11T04:38:15.567Z,13.79
2018-07-11T04:39:15.629Z,13.83
2018-07-11T04:40:15.685Z,13.68
2018-07-11T04:41:15.744Z,13.66
2018-07-11T04:42:15.801Z,13.79
2018-07-11T04:43:15.861Z,13.80
2018-07-11T04:44:15.919Z,13.81
2018-07-11T04:45:15.979Z,13.81
2018-07-11T04:46:16.036Z,13.75
2018-07-11T04:47:16.095Z,13.79
2018-07-11T04:48:16.153Z,13.68
2018-07-11T04:49:16.212Z,13.62
2018-07-11T04:50:16.270Z,13.72
2018-07-11T04:51:16.329Z,13.80
2018-07-11T04:52:16.388Z,13.87
2018-07-11T04:53:16.448Z,13.98
2018-07-11T04:54:16.504Z,13.86
2018-07-11T04:55:16.563Z,13.94
2018-07-11T04:56:16.625Z,13.98
2018-07-11T04:57:16.682Z,13.86
2018-07-11T04:58:16.742Z,13.94
2018-07-11T04:59:16.798Z,13.98
2018-07-11T05:00:16.857Z,14.02
2018-07-11T05:01:16.924Z,13.96
2018-07-11T05:02:16.974Z,13.87
2018-07-11T05:03:17.033Z,13.87
2018-07-11T05:04:17.125Z,13.79
2018-07-11T05:05:17.151Z,13.86
2018-07-11T05:06:17.209Z,13.91
2018-07-11T05:07:17.277Z,14.04
2018-07-11T05:08:17.328Z,14.05
2018-07-11T05:09:17.386Z,14.19
2018-07-11T05:10:17.445Z,14.27
2018-07-11T05:11:17.563Z,14.30
2018-07-11T05:12:17.563Z,14.41
2018-07-11T05:13:17.623Z,14.48
2018-07-11T05:14:17.680Z,14.49
2018-07-11T05:15:17.739Z,14.59
2018-07-11T05:16:17.838Z,14.67
2018-07-11T05:17:17.888Z,14.69
2018-07-11T05:18:17.916Z,14.79
2018-07-11T05:19:18.010Z,14.85
2018-07-11T05:20:18.035Z,14.87
2018-07-11T05:21:18.093Z,14.91
2018-07-11T05:22:18.153Z,14.86
2018-07-11T05:23:18.211Z,14.98
2018-07-11T05:24:18.271Z,14.94
2018-07-11T05:25:18.330Z,14.94
2018-07-11T05:26:18.393Z,14.97
2018-07-11T05:27:18.448Z,15.07
2018-07-11T05:28:18.510Z,15.05
2018-07-11T05:29:18.568Z,15.12
2018-07-11T05:30:18.626Z,15.15
2018-07-11T05:31:18.685Z,15.11
2018-07-11T05:32:18.745Z,15.18
2018-07-11T05:33:18.805Z,15.23
2018-07-11T05:34:18.863Z,15.31
2018-07-11T05:35:18.924Z,15.27
2018-07-11T05:36:19.044Z,15.35
2018-07-11T05:37:19.042Z,15.49
2018-07-11T05:38:19.101Z,15.52
2018-07-11T05:39:19.161Z,15.46
2018-07-11T05:40:19.220Z,15.62
2018-07-11T05:41:19.279Z,15.71
2018-07-11T05:42:19.340Z,15.55
2018-07-11T05:43:19.400Z,15.53
2018-07-11T05:44:19.462Z,15.53
2018-07-11T05:45:19.518Z,15.51
2018-07-11T05:46:19.577Z,15.56
2018-07-11T05:47:19.637Z,15.55
2018-07-11T05:48:19.697Z,15.49
2018-07-11T05:49:19.757Z,15.49
2018-07-11T05:50:19.816Z,15.70
2018-07-11T05:51:19.876Z,15.71
2018-07-11T05:52:19.936Z,15.73
2018-07-11T05:53:19.995Z,15.78
2018-07-11T05:54:20.056Z,15.91
2018-07-11T05:55:20.115Z,15.92
2018-07-11T05:56:20.176Z,15.92
2018-07-11T05:57:20.237Z,15.95
2018-07-11T05:58:20.294Z,16.04
2018-07-11T05:59:20.356Z,15.96
2018-07-11T06:00:20.415Z,16.03
2018-07-11T06:01:20.475Z,15.98
2018-07-11T06:02:20.534Z,16.06
2018-07-11T06:03:20.594Z,16.06
2018-07-11T06:04:20.655Z,15.99
2018-07-11T06:05:20.733Z,16.13
2018-07-11T06:06:20.775Z,16.26
2018-07-11T06:07:20.835Z,16.22
2018-07-11T06:08:20.894Z,16.23
2018-07-11T06:09:20.955Z,16.13
2018-07-11T06:10:21.013Z,16.18
2018-07-11T06:11:21.076Z,16.18
2018-07-11T06:12:21.136Z,16.03
2018-07-11T06:13:21.246Z,16.16
2018-07-11T06:14:21.288Z,16.03
2018-07-11T06:15:21.316Z,16.11
2018-07-11T06:16:21.396Z,16.18
2018-07-11T06:17:21.437Z,16.23
2018-07-11T06:18:21.496Z,16.32
2018-07-11T06:19:21.557Z,16.34
2018-07-11T06:20:21.619Z,16.33
2018-07-11T06:21:21.681Z,16.45
2018-07-11T06:22:21.756Z,16.47
2018-07-11T06:23:22.166Z,16.51
2018-07-11T06:24:21.858Z,16.67
2018-07-11T06:25:21.933Z,16.88
2018-07-11T06:26:21.978Z,16.78
2018-07-11T06:27:22.040Z,16.72
2018-07-11T06:28:22.100Z,16.82
2018-07-11T06:29:24.951Z,16.52
2018-07-11T06:30:22.220Z,16.62
2018-07-11T06:32:54.867Z,16.73
2018-07-11T06:33:54.927Z,16.78
2018-07-11T06:34:54.987Z,16.84
2018-07-11T06:35:55.049Z,16.87
2018-07-11T06:37:47.631Z,17.06
2018-07-11T06:39:30.075Z,17.28
2018-07-11T06:40:30.522Z,17.15
2018-07-11T06:41:30.689Z,17.17
2018-07-11T06:44:00.153Z,17.35
2018-07-11T06:45:00.212Z,17.46
2018-07-11T06:46:00.273Z,17.49
2018-07-11T06:47:00.334Z,17.53
2018-07-11T06:48:00.489Z,17.49
2018-07-11T06:49:00.456Z,17.43
2018-07-11T06:50:00.517Z,17.51
2018-07-11T06:51:00.580Z,17.43
2018-07-11T06:52:00.687Z,17.55
2018-07-11T06:53:00.700Z,17.60
2018-07-11T06:54:00.762Z,17.66
2018-07-11T06:55:00.822Z,17.80
2018-07-11T06:56:00.887Z,17.74
2018-07-11T06:57:00.945Z,17.76
2018-07-11T06:58:01.006Z,17.79
2018-07-11T06:59:01.072Z,17.79
2018-07-11T07:00:01.131Z,17.95
2018-07-11T07:01:01.193Z,17.94
2018-07-11T07:02:01.253Z,17.91
2018-07-11T07:03:01.315Z,18.02
2018-07-11T07:04:01.374Z,18.10
2018-07-11T07:05:01.436Z,18.09
2018-07-11T07:06:01.502Z,18.26
2018-07-11T07:07:01.566Z,18.26
2018-07-11T07:08:01.621Z,18.41
2018-07-11T07:09:01.684Z,18.64
2018-07-11T07:10:01.745Z,18.69
2018-07-11T07:11:01.808Z,18.79
2018-07-11T07:12:02.199Z,18.82
2018-07-11T07:13:01.930Z,18.75
2018-07-11T07:14:01.992Z,18.79
2018-07-11T07:15:02.054Z,18.68
2018-07-11T07:16:02.117Z,18.38
2018-07-11T07:17:02.178Z,18.32
2018-07-11T07:18:02.241Z,18.35
2018-07-11T07:19:02.303Z,18.36
2018-07-11T07:20:02.366Z,18.34
2018-07-11T07:21:02.429Z,18.34
2018-07-11T07:22:02.489Z,18.31
2018-07-11T07:23:02.552Z,18.19
2018-07-11T07:24:02.618Z,18.11
2018-07-11T07:25:02.675Z,17.96
2018-07-11T07:26:02.739Z,17.91
2018-07-11T07:27:02.802Z,17.84
2018-07-11T07:28:02.864Z,17.92
2018-07-11T07:29:02.946Z,18.01
2018-07-11T07:30:02.988Z,17.94
2018-07-11T07:31:03.049Z,17.92
2018-07-11T07:32:03.111Z,18.05
2018-07-11T07:33:03.172Z,17.99
2018-07-11T07:34:03.238Z,18.14
2018-07-11T07:35:03.298Z,18.16
2018-07-11T07:36:03.359Z,18.28
2018-07-11T07:37:03.427Z,17.96
2018-07-11T07:38:03.485Z,18.13
2018-07-11T07:39:03.546Z,18.17
2018-07-11T07:40:03.606Z,18.23
2018-07-11T07:41:03.669Z,18.29
2018-07-11T07:42:03.732Z,18.26
2018-07-11T07:43:03.795Z,18.35
2018-07-11T07:44:03.854Z,18.36
2018-07-11T07:45:03.921Z,18.53
2018-07-11T07:46:03.979Z,18.54
2018-07-11T07:47:04.052Z,18.65
2018-07-11T07:48:04.103Z,18.38
2018-07-11T07:49:04.166Z,18.46
2018-07-11T07:50:04.228Z,18.31
2018-07-11T07:51:04.291Z,18.28
2018-07-11T07:52:04.352Z,18.29
2018-07-11T07:53:04.415Z,18.31
2018-07-11T07:54:04.478Z,18.38
2018-07-11T07:55:04.539Z,18.46
2018-07-11T07:56:04.601Z,18.54
2018-07-11T07:57:04.664Z,18.76
2018-07-11T07:58:04.745Z,18.84
2018-07-11T07:59:04.789Z,18.62
2018-07-11T08:00:04.850Z,18.59
2018-07-11T08:01:04.913Z,18.29
2018-07-11T08:02:04.976Z,18.21
2018-07-11T08:03:05.038Z,18.41
2018-07-11T08:04:05.100Z,18.46
2018-07-11T08:05:05.162Z,18.51
2018-07-11T08:06:05.225Z,18.64
2018-07-11T08:07:05.370Z,18.60
2018-07-11T08:08:05.349Z,18.60
2018-07-11T08:09:05.411Z,18.51
2018-07-11T08:10:05.480Z,18.76
2018-07-11T08:11:05.537Z,18.89
2018-07-11T08:12:05.599Z,18.82
2018-07-11T08:13:05.661Z,18.84
2018-07-11T08:14:05.724Z,18.99
2018-07-11T08:15:05.787Z,19.07
2018-07-11T08:16:05.848Z,18.99
2018-07-11T08:17:05.911Z,19.09
2018-07-11T08:18:05.975Z,18.90
2018-07-11T08:19:06.037Z,19.12
2018-07-11T08:20:06.099Z,19.05
2018-07-11T08:21:06.162Z,18.89
2018-07-11T08:22:06.226Z,19.06
2018-07-11T08:23:06.908Z,19.05
2018-07-11T08:24:06.350Z,18.97
2018-07-11T08:25:06.412Z,18.96
2018-07-11T08:26:06.475Z,18.72
2018-07-11T08:27:06.600Z,18.79
2018-07-11T08:28:06.599Z,18.84
2018-07-11T08:29:06.662Z,18.78
2018-07-11T08:30:06.725Z,18.59
2018-07-11T08:31:06.788Z,18.72
2018-07-11T08:32:06.850Z,18.69
2018-07-11T08:33:06.914Z,18.87
2018-07-11T08:34:06.976Z,18.68
2018-07-11T08:35:07.070Z,18.31
2018-07-11T08:36:07.102Z,18.69
2018-07-11T08:37:07.163Z,18.79
2018-07-11T08:38:07.226Z,19.01
2018-07-11T08:39:07.294Z,19.13
2018-07-11T08:40:07.351Z,19.13
2018-07-11T08:41:07.414Z,18.99
2018-07-11T08:42:07.496Z,19.15
2018-07-11T08:43:07.540Z,19.09
2018-07-11T08:44:07.604Z,18.75
2018-07-11T08:45:07.665Z,18.71
2018-07-11T08:46:07.729Z,18.84
2018-07-11T08:47:07.792Z,18.93
2018-07-11T08:48:07.873Z,19.17
2018-07-11T08:49:08.167Z,19.38
2018-07-11T08:50:07.979Z,19.45
2018-07-11T08:51:08.061Z,19.46
2018-07-11T08:52:08.118Z,19.55
2018-07-11T08:53:08.169Z,19.70
2018-07-11T08:54:08.232Z,19.55
2018-07-11T08:55:08.926Z,19.79
2018-07-11T08:56:08.387Z,20.13
2018-07-11T08:57:08.771Z,20.00
2018-07-11T08:58:08.486Z,19.72
2018-07-11T08:59:08.550Z,19.46
2018-07-11T09:00:08.611Z,19.46
2018-07-11T09:01:08.675Z,19.42
2018-07-11T09:02:08.739Z,19.68
2018-07-11T09:03:08.803Z,19.87
2018-07-11T09:04:08.867Z,19.94
2018-07-11T09:05:08.933Z,19.90
2018-07-11T09:06:08.992Z,19.68
2018-07-11T09:07:09.060Z,19.35
2018-07-11T09:08:09.124Z,18.87
2018-07-11T09:09:09.183Z,18.83
2018-07-11T09:10:09.247Z,18.97
2018-07-11T09:11:09.310Z,19.23
2018-07-11T09:12:09.373Z,19.24
2018-07-11T09:13:09.437Z,19.30
2018-07-11T09:14:09.499Z,19.35
2018-07-11T09:15:09.565Z,19.35
2018-07-11T09:16:09.626Z,19.61
2018-07-11T09:17:09.690Z,19.79
2018-07-11T09:18:09.758Z,19.94
2018-07-11T09:19:09.822Z,20.16
2018-07-11T09:20:09.881Z,20.17
2018-07-11T09:21:09.944Z,20.31
2018-07-11T09:22:10.009Z,20.10
2018-07-11T09:23:10.089Z,20.17
2018-07-11T09:24:10.240Z,20.35
2018-07-11T09:25:10.449Z,20.15
2018-07-11T09:26:10.263Z,20.22
2018-07-11T09:27:10.327Z,20.12
2018-07-11T09:28:10.390Z,20.23
2018-07-11T09:29:10.453Z,20.27
2018-07-11T09:30:10.515Z,20.37
2018-07-11T09:31:10.579Z,20.53
2018-07-11T09:32:10.642Z,20.51
2018-07-11T09:33:10.705Z,20.38
2018-07-11T09:34:10.770Z,20.51
2018-07-11T09:35:10.834Z,20.53
2018-07-11T09:36:10.902Z,20.69
2018-07-11T09:37:10.959Z,20.48
2018-07-11T09:38:11.023Z,20.68
2018-07-11T09:39:11.089Z,20.56
2018-07-11T09:40:11.149Z,20.73
2018-07-11T09:41:11.214Z,20.87
2018-07-11T09:42:11.277Z,20.81
2018-07-11T09:43:11.341Z,20.87
2018-07-11T09:44:11.404Z,21.06
2018-07-11T09:45:11.469Z,21.16
2018-07-11T09:46:11.534Z,20.96
2018-07-11T09:47:11.597Z,21.12
2018-07-11T09:48:11.660Z,21.16
2018-07-11T09:49:11.724Z,21.45
2018-07-11T09:50:11.791Z,21.48
2018-07-11T09:51:11.857Z,21.08
2018-07-11T09:52:11.940Z,20.97
2018-07-11T09:53:11.982Z,21.00
2018-07-11T09:54:12.045Z,21.11
2018-07-11T09:55:12.111Z,21.11
2018-07-11T09:56:12.174Z,21.21
2018-07-11T09:57:12.239Z,21.43
2018-07-11T09:58:12.304Z,21.45
2018-07-11T09:59:12.370Z,21.66
2018-07-11T10:00:12.432Z,21.96
2018-07-11T10:01:12.495Z,21.91
2018-07-11T10:02:12.561Z,21.81
2018-07-11T10:03:12.624Z,22.04
2018-07-11T10:04:12.687Z,22.02
2018-07-11T10:05:12.812Z,22.04
2018-07-11T10:06:12.817Z,22.09
2018-07-11T10:07:12.884Z,22.15
2018-07-11T10:08:12.949Z,22.44
2018-07-11T10:09:13.013Z,22.35
2018-07-11T10:10:13.077Z,22.63
2018-07-11T10:11:13.142Z,22.85
2018-07-11T10:12:13.207Z,22.61
2018-07-11T10:13:13.275Z,22.38
2018-07-11T10:14:13.341Z,22.56
2018-07-11T10:15:13.407Z,22.38
2018-07-11T10:16:13.474Z,22.30
2018-07-11T10:17:13.542Z,22.44
2018-07-11T10:18:13.609Z,22.38
2018-07-11T10:19:13.679Z,22.38
2018-07-11T10:20:13.748Z,22.21
2018-07-11T10:21:13.813Z,21.98
2018-07-11T10:22:13.884Z,21.96
2018-07-11T10:23:13.948Z,21.83
2018-07-11T10:24:14.015Z,22.21
2018-07-11T10:25:14.082Z,22.60
2018-07-11T10:26:14.151Z,22.93
2018-07-11T10:27:14.222Z,23.25
2018-07-11T10:28:14.289Z,23.52
2018-07-11T10:29:14.355Z,23.90
2018-07-11T10:30:14.424Z,24.34
2018-07-11T10:31:14.495Z,24.66
2018-07-11T10:32:14.561Z,24.71
2018-07-11T10:33:14.631Z,25.19
2018-07-11T10:34:14.701Z,25.35
2018-07-11T10:35:14.771Z,24.59
2018-07-11T10:36:14.842Z,25.16
2018-07-11T10:37:14.910Z,25.39
2018-07-11T10:38:14.981Z,25.78
2018-07-11T10:39:15.054Z,25.38
2018-07-11T10:40:15.124Z,25.76
2018-07-11T10:41:15.195Z,26.03
2018-07-11T10:42:15.267Z,25.83
2018-07-11T10:43:15.337Z,25.54
2018-07-11T10:44:15.408Z,26.20
2018-07-11T10:45:15.480Z,26.79
2018-07-11T10:46:15.552Z,27.01
2018-07-11T10:47:15.626Z,26.09
2018-07-11T10:48:15.696Z,25.75
2018-07-11T10:49:15.770Z,25.89
2018-07-11T10:50:15.842Z,24.83
2018-07-11T10:51:15.917Z,24.24
2018-07-11T10:52:15.988Z,24.29
2018-07-11T10:53:16.059Z,24.64
2018-07-11T10:54:16.136Z,24.29
2018-07-11T10:55:16.205Z,25.11
2018-07-11T10:56:16.277Z,25.79
2018-07-11T10:57:16.350Z,25.98
2018-07-11T10:58:16.422Z,26.24
2018-07-11T10:59:16.494Z,25.49
2018-07-11T11:00:35.968Z,24.84
2018-07-11T11:01:16.707Z,24.82
2018-07-11T11:02:16.712Z,25.38
2018-07-11T11:03:17.380Z,25.69
2018-07-11T11:04:16.857Z,26.21
2018-07-11T11:05:16.930Z,26.19
2018-07-11T11:06:17.009Z,26.47
2018-07-11T11:07:17.078Z,26.65
2018-07-11T11:08:17.148Z,26.16
2018-07-11T11:09:17.222Z,26.13
2018-07-11T11:10:17.299Z,25.69
2018-07-11T11:11:17.370Z,25.93
2018-07-11T11:12:17.442Z,26.06
2018-07-11T11:13:17.515Z,26.78
2018-07-11T11:14:17.588Z,26.46
2018-07-11T11:15:17.662Z,25.54
2018-07-11T11:16:17.738Z,25.97
2018-07-11T11:17:17.807Z,25.94
2018-07-11T11:18:17.882Z,25.07
2018-07-11T11:19:17.955Z,24.64
2018-07-11T11:20:18.029Z,24.34
2018-07-11T11:21:18.101Z,24.08
2018-07-11T11:22:18.175Z,23.90
2018-07-11T11:23:18.248Z,23.64
2018-07-11T11:24:18.321Z,24.12
2018-07-11T11:25:18.394Z,24.92
2018-07-11T11:26:18.465Z,25.83
2018-07-11T11:27:18.541Z,25.89
2018-07-11T11:28:18.609Z,26.29
2018-07-11T11:29:18.681Z,26.31
2018-07-11T11:30:18.752Z,25.08
2018-07-11T11:31:18.824Z,24.86
2018-07-11T11:32:18.896Z,25.02
2018-07-11T11:33:18.968Z,25.35
2018-07-11T11:34:19.039Z,25.90
2018-07-11T11:35:19.112Z,25.90
2018-07-11T11:36:19.187Z,25.30
2018-07-11T11:37:19.256Z,24.94
2018-07-11T11:38:19.327Z,24.67
2018-07-11T11:39:19.399Z,24.68
2018-07-11T11:40:19.471Z,24.83
2018-07-11T11:41:19.543Z,24.80
2018-07-11T11:42:20.053Z,24.46
2018-07-11T11:43:19.686Z,24.51
2018-07-11T11:44:19.761Z,24.08
2018-07-11T11:45:19.827Z,23.75
2018-07-11T11:46:19.897Z,23.60
2018-07-11T11:47:19.968Z,23.47
2018-07-11T11:48:20.038Z,23.52
2018-07-11T11:49:20.106Z,23.52
2018-07-11T11:50:20.427Z,23.47
2018-07-11T11:51:20.246Z,23.38
2018-07-11T11:52:20.314Z,23.22
2018-07-11T11:53:20.382Z,23.07
2018-07-11T11:54:20.450Z,23.19
2018-07-11T11:55:20.522Z,23.29
2018-07-11T11:56:20.837Z,23.37
2018-07-11T11:57:20.655Z,23.47
2018-07-11T11:58:20.722Z,23.29
2018-07-11T11:59:20.790Z,23.34
2018-07-11T12:00:20.856Z,23.54
2018-07-11T12:01:20.924Z,24.93
2018-07-11T12:02:20.993Z,25.63
2018-07-11T12:03:21.060Z,25.22
2018-07-11T12:04:21.126Z,25.66
2018-07-11T12:05:21.196Z,26.19
2018-07-11T12:06:21.263Z,25.61
2018-07-11T12:07:21.331Z,24.61
2018-07-11T12:08:21.401Z,24.37
2018-07-11T12:09:21.467Z,24.24
2018-07-11T12:10:21.539Z,24.11
2018-07-11T12:11:21.608Z,23.69
2018-07-11T12:12:21.668Z,23.21
2018-07-11T12:13:21.737Z,23.16
2018-07-11T12:14:21.804Z,23.25
2018-07-11T12:15:21.872Z,23.29
2018-07-11T12:16:21.939Z,23.38
2018-07-11T12:17:22.006Z,23.60
2018-07-11T12:18:22.074Z,23.67
2018-07-11T12:19:22.142Z,23.50
2018-07-11T12:20:22.206Z,23.44
2018-07-11T12:21:22.279Z,23.41
2018-07-11T12:22:22.340Z,23.22
2018-07-11T12:23:22.408Z,23.26
2018-07-11T12:24:22.472Z,23.62
2018-07-11T12:25:22.539Z,24.82
2018-07-11T12:26:22.606Z,26.06
2018-07-11T12:27:22.673Z,26.88
2018-07-11T12:28:22.738Z,26.19
2018-07-11T12:29:22.805Z,25.59
2018-07-11T12:30:22.875Z,25.05
2018-07-11T12:31:22.940Z,24.60
2018-07-11T12:32:23.007Z,24.46
2018-07-11T12:33:23.077Z,24.06
2018-07-11T12:34:23.142Z,23.47
2018-07-11T12:35:23.210Z,23.29
2018-07-11T12:36:23.281Z,23.26
2018-07-11T12:37:23.344Z,23.42
2018-07-11T12:38:23.411Z,23.19
2018-07-11T12:39:23.479Z,23.11
2018-07-11T12:40:23.544Z,22.93
2018-07-11T12:41:23.612Z,23.06
2018-07-11T12:42:23.678Z,22.99
2018-07-11T12:43:23.799Z,22.67
2018-07-11T12:44:23.811Z,22.74
2018-07-11T12:45:23.878Z,22.72
2018-07-11T12:46:23.944Z,22.75
2018-07-11T12:47:24.009Z,22.81
2018-07-11T12:48:24.075Z,22.93
2018-07-11T12:49:24.142Z,23.18
2018-07-11T12:50:24.245Z,23.19
2018-07-11T12:51:24.273Z,23.38
2018-07-11T12:52:24.337Z,23.62
2018-07-11T12:53:24.405Z,23.79
2018-07-11T12:54:24.470Z,23.89
2018-07-11T12:55:24.535Z,23.82
2018-07-11T12:56:24.600Z,23.92
2018-07-11T12:57:24.667Z,23.68
2018-07-11T12:58:25.012Z,23.49